createdAt,value
2022-12-25T00:13:48.881Z,7.6
2022-12-25T00:28:48.912Z,7.6
2022-12-25T00:43:48.858Z,7.7
2022-12-25T00:58:48.899Z,7.4
2022-12-25T01:13:48.848Z,7.1
2022-12-25T01:28:48.889Z,7.3
2022-12-25T01:43:48.832Z,7.2
2022-12-25T01:58:48.834Z,6.8
2022-12-25T02:13:48.802Z,6.7
2022-12-25T02:28:48.827Z,6.8
2022-12-25T02:43:48.766Z,6.6
2022-12-25T02:58:48.787Z,6.7
2022-12-25T03:13:48.755Z,6.5
2022-12-25T03:28:48.763Z,6.4
2022-12-25T03:43:48.737Z,6.5
2022-12-25T03:58:48.763Z,6.7
2022-12-25T04:13:48.694Z,6.3
2022-12-25T04:28:48.732Z,5.9
2022-12-25T04:43:48.699Z,5.8
2022-12-25T04:58:48.734Z,5.9
2022-12-25T05:13:48.655Z,5.6
2022-12-25T05:28:48.701Z,5.9
2022-12-25T05:43:48.646Z,5.6
2022-12-25T05:58:48.670Z,5.3
2022-12-25T06:13:48.611Z,5.3
2022-12-25T06:28:48.657Z,5.2
2022-12-25T06:43:48.607Z,5.2
2022-12-25T06:58:48.625Z,5.4
2022-12-25T07:13:48.564Z,5.3
2022-12-25T07:28:48.620Z,5.5
2022-12-25T07:43:48.558Z,5.3
2022-12-25T07:58:48.577Z,4.8
2022-12-25T08:13:48.546Z,4.8
2022-12-25T08:28:48.569Z,5
2022-12-25T08:43:48.524Z,5.8
2022-12-25T08:58:48.562Z,6.5
2022-12-25T09:13:48.494Z,6.8
2022-12-25T09:28:51.873Z,7
2022-12-25T09:43:48.489Z,7.1
2022-12-25T09:58:48.509Z,8.3
2022-12-25T10:13:48.453Z,8.7
2022-12-25T10:28:48.473Z,8.9
2022-12-25T10:43:48.422Z,8.2
2022-12-25T10:58:48.433Z,9.3
2022-12-25T11:13:48.387Z,9.6
2022-12-25T11:28:48.408Z,9.9
2022-12-25T11:43:48.381Z,10
2022-12-25T11:58:48.407Z,10.4
2022-12-25T12:13:48.321Z,10.6
2022-12-25T12:28:48.368Z,11
2022-12-25T12:58:48.348Z,10.8
2022-12-25T13:13:48.265Z,10.7
2022-12-25T13:28:48.277Z,11.3
2022-12-25T13:43:48.249Z,11.2
2022-12-25T13:58:48.267Z,10.9
2022-12-25T14:13:48.205Z,10.8
2022-12-25T14:28:48.211Z,10.7
2022-12-25T14:43:48.177Z,10.8
2022-12-25T14:58:48.215Z,11
2022-12-25T15:13:48.148Z,11.2
2022-12-25T15:28:48.180Z,11.4
2022-12-25T15:43:48.117Z,11.4
2022-12-25T15:58:48.144Z,11.2
2022-12-25T16:13:48.077Z,11.1
2022-12-25T16:28:48.100Z,10.5
2022-12-25T16:43:48.040Z,10.1
2022-12-25T16:58:48.170Z,9.9
2022-12-25T17:13:48.019Z,9.7
2022-12-25T17:28:48.038Z,9.8
2022-12-25T17:43:47.973Z,9.8
2022-12-25T17:58:48.015Z,10
2022-12-25T18:13:47.963Z,9.8
2022-12-25T18:28:47.974Z,9.9
2022-12-25T18:43:52.748Z,9.6
2022-12-25T18:58:47.938Z,8.9
2022-12-25T19:13:47.890Z,8.6
2022-12-25T19:28:47.931Z,8.2
2022-12-25T19:43:47.891Z,8.2
2022-12-25T19:58:47.883Z,8.1
2022-12-25T20:13:47.849Z,8.2
2022-12-25T20:28:47.887Z,8.2
2022-12-25T20:43:47.817Z,8.4
2022-12-25T20:58:47.848Z,8.7
2022-12-25T21:13:47.782Z,8.4
2022-12-25T21:28:47.808Z,8.5
2022-12-25T21:43:47.763Z,8.2
2022-12-25T21:58:47.784Z,8.3
2022-12-25T22:13:47.727Z,8.3
2022-12-25T22:28:47.767Z,7.6
2022-12-25T22:44:16.706Z,7.5
2022-12-25T22:58:47.725Z,7.7
2022-12-25T23:13:47.690Z,7.8
2022-12-25T23:28:47.738Z,7.7
2022-12-25T23:43:47.653Z,7.9
